sensor_id;sensor_type;location;lat;lon;timestamp;temperature;humidity
79760;DHT22;69248;42.138;24.742;2023-04-25T00:01:25;16.20;74.90
79760;DHT22;69248;42.138;24.742;2023-04-25T00:03:53;16.20;75.00
79760;DHT22;69248;42.138;24.742;2023-04-25T00:06:21;16.10;75.70
79760;DHT22;69248;42.138;24.742;2023-04-25T00:08:50;16.10;75.70
79760;DHT22;69248;42.138;24.742;2023-04-25T00:11:17;16.10;75.10
79760;DHT22;69248;42.138;24.742;2023-04-25T00:13:45;16.10;74.90
79760;DHT22;69248;42.138;24.742;2023-04-25T00:16:12;16.00;74.70
79760;DHT22;69248;42.138;24.742;2023-04-25T00:18:42;16.00;74.90
79760;DHT22;69248;42.138;24.742;2023-04-25T00:21:10;16.00;75.40
79760;DHT22;69248;42.138;24.742;2023-04-25T00:23:38;15.90;75.80
79760;DHT22;69248;42.138;24.742;2023-04-25T00:26:05;15.90;75.70
79760;DHT22;69248;42.138;24.742;2023-04-25T00:28:34;15.90;76.10
79760;DHT22;69248;42.138;24.742;2023-04-25T00:31:01;15.80;76.30
79760;DHT22;69248;42.138;24.742;2023-04-25T00:33:29;15.80;77.20
79760;DHT22;69248;42.138;24.742;2023-04-25T00:35:56;15.80;76.90
79760;DHT22;69248;42.138;24.742;2023-04-25T00:38:24;15.80;77.00
79760;DHT22;69248;42.138;24.742;2023-04-25T00:40:51;15.80;76.60
79760;DHT22;69248;42.138;24.742;2023-04-25T00:43:19;15.80;76.80
79760;DHT22;69248;42.138;24.742;2023-04-25T00:45:48;15.70;76.80
79760;DHT22;69248;42.138;24.742;2023-04-25T00:48:17;15.70;77.00
79760;DHT22;69248;42.138;24.742;2023-04-25T00:50:56;15.70;76.80
79760;DHT22;69248;42.138;24.742;2023-04-25T00:53:26;15.70;76.50
79760;DHT22;69248;42.138;24.742;2023-04-25T00:55:53;15.70;76.80
79760;DHT22;69248;42.138;24.742;2023-04-25T00:58:22;15.70;77.00
79760;DHT22;69248;42.138;24.742;2023-04-25T01:00:51;15.70;77.10
79760;DHT22;69248;42.138;24.742;2023-04-25T01:03:18;15.70;76.90
79760;DHT22;69248;42.138;24.742;2023-04-25T01:05:47;15.70;76.00
79760;DHT22;69248;42.138;24.742;2023-04-25T01:08:14;15.70;75.60
79760;DHT22;69248;42.138;24.742;2023-04-25T01:10:42;15.70;75.70
79760;DHT22;69248;42.138;24.742;2023-04-25T01:13:10;15.70;76.10
79760;DHT22;69248;42.138;24.742;2023-04-25T01:15:37;15.70;76.00
79760;DHT22;69248;42.138;24.742;2023-04-25T01:18:06;15.50;75.80
79760;DHT22;69248;42.138;24.742;2023-04-25T01:20:33;15.50;76.20
79760;DHT22;69248;42.138;24.742;2023-04-25T01:23:01;15.50;76.50
79760;DHT22;69248;42.138;24.742;2023-04-25T01:25:30;15.40;76.70
79760;DHT22;69248;42.138;24.742;2023-04-25T01:27:58;15.40;77.10
79760;DHT22;69248;42.138;24.742;2023-04-25T01:30:26;15.40;76.80
79760;DHT22;69248;42.138;24.742;2023-04-25T01:32:57;15.40;77.00
79760;DHT22;69248;42.138;24.742;2023-04-25T01:35:26;15.50;76.50
79760;DHT22;69248;42.138;24.742;2023-04-25T01:37:54;15.50;76.40
79760;DHT22;69248;42.138;24.742;2023-04-25T01:40:22;15.50;76.80
79760;DHT22;69248;42.138;24.742;2023-04-25T01:42:51;15.40;76.90
79760;DHT22;69248;42.138;24.742;2023-04-25T01:45:19;15.40;77.30
79760;DHT22;69248;42.138;24.742;2023-04-25T01:47:47;15.30;77.30
79760;DHT22;69248;42.138;24.742;2023-04-25T01:50:17;15.20;78.00
79760;DHT22;69248;42.138;24.742;2023-04-25T01:52:45;15.20;78.30
79760;DHT22;69248;42.138;24.742;2023-04-25T01:55:13;15.20;78.90
79760;DHT22;69248;42.138;24.742;2023-04-25T01:57:40;15.10;79.20
79760;DHT22;69248;42.138;24.742;2023-04-25T02:00:08;15.10;79.60
79760;DHT22;69248;42.138;24.742;2023-04-25T02:02:36;15.10;79.80
79760;DHT22;69248;42.138;24.742;2023-04-25T02:05:04;15.20;79.00
79760;DHT22;69248;42.138;24.742;2023-04-25T02:07:32;15.10;79.20
79760;DHT22;69248;42.138;24.742;2023-04-25T02:10:00;15.10;79.50
79760;DHT22;69248;42.138;24.742;2023-04-25T02:12:28;15.00;79.90
79760;DHT22;69248;42.138;24.742;2023-04-25T02:14:56;15.00;80.20
79760;DHT22;69248;42.138;24.742;2023-04-25T02:17:23;15.00;80.40
79760;DHT22;69248;42.138;24.742;2023-04-25T02:19:51;15.00;80.30
79760;DHT22;69248;42.138;24.742;2023-04-25T02:22:19;14.90;79.80
79760;DHT22;69248;42.138;24.742;2023-04-25T02:24:46;15.00;79.90
79760;DHT22;69248;42.138;24.742;2023-04-25T02:27:14;15.00;79.70
79760;DHT22;69248;42.138;24.742;2023-04-25T02:29:41;15.00;79.70
79760;DHT22;69248;42.138;24.742;2023-04-25T02:32:09;14.90;79.60
79760;DHT22;69248;42.138;24.742;2023-04-25T02:34:37;14.90;80.00
79760;DHT22;69248;42.138;24.742;2023-04-25T02:37:04;15.00;79.90
79760;DHT22;69248;42.138;24.742;2023-04-25T02:39:32;14.90;79.80
79760;DHT22;69248;42.138;24.742;2023-04-25T02:41:59;14.90;79.90
79760;DHT22;69248;42.138;24.742;2023-04-25T02:44:27;14.90;80.00
79760;DHT22;69248;42.138;24.742;2023-04-25T02:46:54;14.80;80.20
79760;DHT22;69248;42.138;24.742;2023-04-25T02:49:22;14.70;80.40
79760;DHT22;69248;42.138;24.742;2023-04-25T02:51:49;14.70;80.60
79760;DHT22;69248;42.138;24.742;2023-04-25T02:54:17;14.70;80.90
79760;DHT22;69248;42.138;24.742;2023-04-25T02:56:44;14.60;81.20
79760;DHT22;69248;42.138;24.742;2023-04-25T02:59:12;14.60;80.90
79760;DHT22;69248;42.138;24.742;2023-04-25T03:01:39;14.60;80.90
79760;DHT22;69248;42.138;24.742;2023-04-25T03:04:07;14.40;80.70
79760;DHT22;69248;42.138;24.742;2023-04-25T03:06:35;14.30;81.50
79760;DHT22;69248;42.138;24.742;2023-04-25T03:09:03;14.30;81.70
79760;DHT22;69248;42.138;24.742;2023-04-25T03:11:30;14.20;81.60
79760;DHT22;69248;42.138;24.742;2023-04-25T03:13:58;14.10;81.80
79760;DHT22;69248;42.138;24.742;2023-04-25T03:16:25;14.10;82.10
79760;DHT22;69248;42.138;24.742;2023-04-25T03:18:53;14.10;82.00
79760;DHT22;69248;42.138;24.742;2023-04-25T03:21:20;14.20;82.20
79760;DHT22;69248;42.138;24.742;2023-04-25T03:23:48;14.10;81.70
79760;DHT22;69248;42.138;24.742;2023-04-25T03:26:15;14.20;81.40
79760;DHT22;69248;42.138;24.742;2023-04-25T03:28:43;14.10;81.30
79760;DHT22;69248;42.138;24.742;2023-04-25T03:31:10;14.10;81.50
79760;DHT22;69248;42.138;24.742;2023-04-25T03:33:38;14.20;81.00
79760;DHT22;69248;42.138;24.742;2023-04-25T03:36:06;14.20;81.30
79760;DHT22;69248;42.138;24.742;2023-04-25T03:38:34;14.30;81.30
79760;DHT22;69248;42.138;24.742;2023-04-25T03:41:02;14.40;81.00
79760;DHT22;69248;42.138;24.742;2023-04-25T03:43:29;14.50;80.40
79760;DHT22;69248;42.138;24.742;2023-04-25T03:45:57;14.50;80.00
79760;DHT22;69248;42.138;24.742;2023-04-25T03:48:26;14.50;79.70
79760;DHT22;69248;42.138;24.742;2023-04-25T03:50:54;14.60;79.40
79760;DHT22;69248;42.138;24.742;2023-04-25T03:53:21;14.60;80.10
79760;DHT22;69248;42.138;24.742;2023-04-25T03:55:49;14.60;79.50
79760;DHT22;69248;42.138;24.742;2023-04-25T03:58:17;14.60;79.70
79760;DHT22;69248;42.138;24.742;2023-04-25T04:00:44;14.50;80.20
79760;DHT22;69248;42.138;24.742;2023-04-25T04:03:12;14.50;80.40
79760;DHT22;69248;42.138;24.742;2023-04-25T04:05:39;14.50;80.50
79760;DHT22;69248;42.138;24.742;2023-04-25T04:08:07;14.60;80.00
79760;DHT22;69248;42.138;24.742;2023-04-25T04:10:34;14.60;79.50
79760;DHT22;69248;42.138;24.742;2023-04-25T04:13:02;14.70;79.30
79760;DHT22;69248;42.138;24.742;2023-04-25T04:15:30;14.70;79.10
79760;DHT22;69248;42.138;24.742;2023-04-25T04:17:59;14.80;78.90
79760;DHT22;69248;42.138;24.742;2023-04-25T04:20:29;14.90;78.30
79760;DHT22;69248;42.138;24.742;2023-04-25T04:22:59;15.00;78.20
79760;DHT22;69248;42.138;24.742;2023-04-25T04:25:27;15.10;78.40
79760;DHT22;69248;42.138;24.742;2023-04-25T04:27:55;15.20;77.90
79760;DHT22;69248;42.138;24.742;2023-04-25T04:30:23;15.40;76.70
79760;DHT22;69248;42.138;24.742;2023-04-25T04:32:51;15.50;75.70
79760;DHT22;69248;42.138;24.742;2023-04-25T04:35:19;15.50;76.20
79760;DHT22;69248;42.138;24.742;2023-04-25T04:37:47;15.60;75.40
79760;DHT22;69248;42.138;24.742;2023-04-25T04:40:15;15.70;75.00
79760;DHT22;69248;42.138;24.742;2023-04-25T04:42:43;15.80;74.90
79760;DHT22;69248;42.138;24.742;2023-04-25T04:45:12;15.90;74.90
79760;DHT22;69248;42.138;24.742;2023-04-25T04:47:40;16.00;74.20
79760;DHT22;69248;42.138;24.742;2023-04-25T04:50:08;16.10;73.30
79760;DHT22;69248;42.138;24.742;2023-04-25T04:52:37;16.20;73.20
79760;DHT22;69248;42.138;24.742;2023-04-25T04:55:06;16.30;72.90
79760;DHT22;69248;42.138;24.742;2023-04-25T04:57:35;16.30;72.30
79760;DHT22;69248;42.138;24.742;2023-04-25T05:00:03;16.30;71.80
79760;DHT22;69248;42.138;24.742;2023-04-25T05:02:38;16.30;72.20
79760;DHT22;69248;42.138;24.742;2023-04-25T05:05:06;16.30;72.30
79760;DHT22;69248;42.138;24.742;2023-04-25T05:07:34;16.30;72.20
79760;DHT22;69248;42.138;24.742;2023-04-25T05:10:02;16.30;71.70
79760;DHT22;69248;42.138;24.742;2023-04-25T05:12:30;16.40;71.80
79760;DHT22;69248;42.138;24.742;2023-04-25T05:14:57;16.40;71.70
79760;DHT22;69248;42.138;24.742;2023-04-25T05:17:25;16.50;71.70
79760;DHT22;69248;42.138;24.742;2023-04-25T05:19:52;16.50;71.20
79760;DHT22;69248;42.138;24.742;2023-04-25T05:22:20;16.60;70.80
79760;DHT22;69248;42.138;24.742;2023-04-25T05:24:48;16.60;70.60
79760;DHT22;69248;42.138;24.742;2023-04-25T05:27:17;16.70;70.90
79760;DHT22;69248;42.138;24.742;2023-04-25T05:29:45;16.70;70.50
79760;DHT22;69248;42.138;24.742;2023-04-25T05:32:12;16.70;70.90
79760;DHT22;69248;42.138;24.742;2023-04-25T05:34:42;16.70;70.80
79760;DHT22;69248;42.138;24.742;2023-04-25T05:37:09;16.70;70.90
79760;DHT22;69248;42.138;24.742;2023-04-25T05:39:37;16.70;70.90
79760;DHT22;69248;42.138;24.742;2023-04-25T05:42:04;16.80;70.40
79760;DHT22;69248;42.138;24.742;2023-04-25T05:44:32;16.80;69.50
79760;DHT22;69248;42.138;24.742;2023-04-25T05:46:59;16.80;69.20
79760;DHT22;69248;42.138;24.742;2023-04-25T05:49:27;16.80;69.30
79760;DHT22;69248;42.138;24.742;2023-04-25T05:51:55;16.80;69.40
79760;DHT22;69248;42.138;24.742;2023-04-25T05:54:23;16.80;69.30
79760;DHT22;69248;42.138;24.742;2023-04-25T05:56:50;16.90;69.40
79760;DHT22;69248;42.138;24.742;2023-04-25T05:59:18;17.00;69.00
79760;DHT22;69248;42.138;24.742;2023-04-25T06:01:46;17.10;68.80
79760;DHT22;69248;42.138;24.742;2023-04-25T06:04:13;17.20;68.30
79760;DHT22;69248;42.138;24.742;2023-04-25T06:06:41;17.50;68.20
79760;DHT22;69248;42.138;24.742;2023-04-25T06:09:09;17.70;66.90
79760;DHT22;69248;42.138;24.742;2023-04-25T06:11:36;18.10;65.50
79760;DHT22;69248;42.138;24.742;2023-04-25T06:14:04;18.40;64.40
79760;DHT22;69248;42.138;24.742;2023-04-25T06:16:31;18.80;62.60
79760;DHT22;69248;42.138;24.742;2023-04-25T06:18:59;19.10;61.20
79760;DHT22;69248;42.138;24.742;2023-04-25T06:21:26;19.30;60.10
79760;DHT22;69248;42.138;24.742;2023-04-25T06:23:54;19.40;59.90
79760;DHT22;69248;42.138;24.742;2023-04-25T06:26:22;19.50;59.80
79760;DHT22;69248;42.138;24.742;2023-04-25T06:28:49;19.60;59.70
79760;DHT22;69248;42.138;24.742;2023-04-25T06:31:17;19.50;59.50
79760;DHT22;69248;42.138;24.742;2023-04-25T06:33:44;19.40;59.00
79760;DHT22;69248;42.138;24.742;2023-04-25T06:36:12;19.40;59.20
79760;DHT22;69248;42.138;24.742;2023-04-25T06:38:39;19.40;58.40
79760;DHT22;69248;42.138;24.742;2023-04-25T06:41:07;19.50;58.50
79760;DHT22;69248;42.138;24.742;2023-04-25T06:43:35;19.50;58.10
79760;DHT22;69248;42.138;24.742;2023-04-25T06:46:02;19.60;59.10
79760;DHT22;69248;42.138;24.742;2023-04-25T06:48:30;19.80;59.20
79760;DHT22;69248;42.138;24.742;2023-04-25T06:50:57;20.00;58.80
79760;DHT22;69248;42.138;24.742;2023-04-25T06:53:25;20.20;58.30
79760;DHT22;69248;42.138;24.742;2023-04-25T06:55:52;20.10;56.10
79760;DHT22;69248;42.138;24.742;2023-04-25T06:58:20;20.10;57.00
79760;DHT22;69248;42.138;24.742;2023-04-25T07:00:47;20.20;57.50
79760;DHT22;69248;42.138;24.742;2023-04-25T07:03:15;20.50;57.30
79760;DHT22;69248;42.138;24.742;2023-04-25T07:05:50;20.80;56.50
79760;DHT22;69248;42.138;24.742;2023-04-25T07:08:29;21.10;54.60
79760;DHT22;69248;42.138;24.742;2023-04-25T07:11:01;21.10;53.70
79760;DHT22;69248;42.138;24.742;2023-04-25T07:13:29;21.10;54.10
79760;DHT22;69248;42.138;24.742;2023-04-25T07:15:57;21.10;53.80
79760;DHT22;69248;42.138;24.742;2023-04-25T07:18:25;21.00;53.20
79760;DHT22;69248;42.138;24.742;2023-04-25T07:20:52;21.00;53.50
79760;DHT22;69248;42.138;24.742;2023-04-25T07:23:20;20.90;53.70
79760;DHT22;69248;42.138;24.742;2023-04-25T07:25:47;20.90;53.70
79760;DHT22;69248;42.138;24.742;2023-04-25T07:28:15;21.10;54.00
79760;DHT22;69248;42.138;24.742;2023-04-25T07:30:43;21.20;53.70
79760;DHT22;69248;42.138;24.742;2023-04-25T07:33:10;21.10;53.80
79760;DHT22;69248;42.138;24.742;2023-04-25T07:35:38;21.10;54.40
79760;DHT22;69248;42.138;24.742;2023-04-25T07:38:06;21.10;54.00
79760;DHT22;69248;42.138;24.742;2023-04-25T07:40:34;21.10;53.80
79760;DHT22;69248;42.138;24.742;2023-04-25T07:43:03;21.20;53.10
79760;DHT22;69248;42.138;24.742;2023-04-25T07:45:32;21.20;53.00
79760;DHT22;69248;42.138;24.742;2023-04-25T07:47:59;21.40;52.80
79760;DHT22;69248;42.138;24.742;2023-04-25T07:50:27;21.60;52.70
79760;DHT22;69248;42.138;24.742;2023-04-25T07:52:55;21.80;52.00
79760;DHT22;69248;42.138;24.742;2023-04-25T07:55:22;21.80;51.60
79760;DHT22;69248;42.138;24.742;2023-04-25T07:57:50;21.80;50.60
79760;DHT22;69248;42.138;24.742;2023-04-25T08:00:17;21.70;50.90
79760;DHT22;69248;42.138;24.742;2023-04-25T08:02:45;21.50;51.20
79760;DHT22;69248;42.138;24.742;2023-04-25T08:05:13;21.40;51.50
79760;DHT22;69248;42.138;24.742;2023-04-25T08:07:41;21.40;52.00
79760;DHT22;69248;42.138;24.742;2023-04-25T08:10:10;21.60;51.80
79760;DHT22;69248;42.138;24.742;2023-04-25T08:12:37;21.50;51.30
79760;DHT22;69248;42.138;24.742;2023-04-25T08:15:05;21.50;51.40
79760;DHT22;69248;42.138;24.742;2023-04-25T08:17:33;21.60;51.00
79760;DHT22;69248;42.138;24.742;2023-04-25T08:20:01;21.80;50.70
79760;DHT22;69248;42.138;24.742;2023-04-25T08:22:30;22.00;49.20
79760;DHT22;69248;42.138;24.742;2023-04-25T08:24:58;22.30;48.60
79760;DHT22;69248;42.138;24.742;2023-04-25T08:27:26;22.60;48.10
79760;DHT22;69248;42.138;24.742;2023-04-25T08:29:53;22.90;47.00
79760;DHT22;69248;42.138;24.742;2023-04-25T08:32:21;23.20;46.20
79760;DHT22;69248;42.138;24.742;2023-04-25T08:34:48;23.50;44.80
79760;DHT22;69248;42.138;24.742;2023-04-25T08:37:17;23.70;43.50
79760;DHT22;69248;42.138;24.742;2023-04-25T08:39:46;23.60;41.70
79760;DHT22;69248;42.138;24.742;2023-04-25T08:42:15;23.20;42.20
79760;DHT22;69248;42.138;24.742;2023-04-25T08:44:42;22.80;43.30
79760;DHT22;69248;42.138;24.742;2023-04-25T08:47:11;22.50;44.10
79760;DHT22;69248;42.138;24.742;2023-04-25T08:49:45;22.30;44.90
79760;DHT22;69248;42.138;24.742;2023-04-25T08:52:13;22.00;46.50
79760;DHT22;69248;42.138;24.742;2023-04-25T08:54:45;21.90;47.70
79760;DHT22;69248;42.138;24.742;2023-04-25T08:57:15;21.80;48.40
79760;DHT22;69248;42.138;24.742;2023-04-25T08:59:42;21.60;49.00
79760;DHT22;69248;42.138;24.742;2023-04-25T09:02:12;21.40;50.60
79760;DHT22;69248;42.138;24.742;2023-04-25T09:04:43;21.30;51.10
79760;DHT22;69248;42.138;24.742;2023-04-25T09:07:11;21.50;50.90
79760;DHT22;69248;42.138;24.742;2023-04-25T09:09:41;21.60;50.60
79760;DHT22;69248;42.138;24.742;2023-04-25T09:12:09;21.50;50.30
79760;DHT22;69248;42.138;24.742;2023-04-25T09:14:37;21.50;49.80
79760;DHT22;69248;42.138;24.742;2023-04-25T09:17:05;21.30;50.50
79760;DHT22;69248;42.138;24.742;2023-04-25T09:19:37;21.10;50.60
79760;DHT22;69248;42.138;24.742;2023-04-25T09:22:08;20.90;51.90
79760;DHT22;69248;42.138;24.742;2023-04-25T09:24:41;21.00;52.30
79760;DHT22;69248;42.138;24.742;2023-04-25T09:27:11;20.90;52.50
79760;DHT22;69248;42.138;24.742;2023-04-25T09:29:41;20.90;52.20
79760;DHT22;69248;42.138;24.742;2023-04-25T09:34:43;21.20;51.60
79760;DHT22;69248;42.138;24.742;2023-04-25T09:37:11;21.40;51.20
79760;DHT22;69248;42.138;24.742;2023-04-25T09:39:39;21.70;50.30
79760;DHT22;69248;42.138;24.742;2023-04-25T09:42:07;21.60;50.70
79760;DHT22;69248;42.138;24.742;2023-04-25T09:44:36;21.80;50.10
79760;DHT22;69248;42.138;24.742;2023-04-25T09:47:04;22.10;49.50
79760;DHT22;69248;42.138;24.742;2023-04-25T09:49:33;22.40;48.50
79760;DHT22;69248;42.138;24.742;2023-04-25T09:52:01;22.50;48.70
79760;DHT22;69248;42.138;24.742;2023-04-25T09:54:28;22.50;48.50
79760;DHT22;69248;42.138;24.742;2023-04-25T09:56:56;22.40;48.90
79760;DHT22;69248;42.138;24.742;2023-04-25T09:59:24;22.30;48.90
79760;DHT22;69248;42.138;24.742;2023-04-25T10:01:52;21.90;49.00
79760;DHT22;69248;42.138;24.742;2023-04-25T10:04:24;21.80;49.60
79760;DHT22;69248;42.138;24.742;2023-04-25T10:06:54;22.00;50.00
79760;DHT22;69248;42.138;24.742;2023-04-25T10:09:25;22.20;49.30
79760;DHT22;69248;42.138;24.742;2023-04-25T10:11:55;22.40;49.40
79760;DHT22;69248;42.138;24.742;2023-04-25T10:14:23;22.30;48.50
79760;DHT22;69248;42.138;24.742;2023-04-25T10:16:53;22.30;48.90
79760;DHT22;69248;42.138;24.742;2023-04-25T10:19:21;22.40;48.20
79760;DHT22;69248;42.138;24.742;2023-04-25T10:22:07;22.40;48.10
79760;DHT22;69248;42.138;24.742;2023-04-25T10:24:38;22.40;48.50
79760;DHT22;69248;42.138;24.742;2023-04-25T10:27:06;22.50;47.20
79760;DHT22;69248;42.138;24.742;2023-04-25T10:29:36;22.50;46.90
79760;DHT22;69248;42.138;24.742;2023-04-25T10:32:04;22.70;45.00
79760;DHT22;69248;42.138;24.742;2023-04-25T10:34:46;22.70;45.80
79760;DHT22;69248;42.138;24.742;2023-04-25T10:37:12;22.80;46.00
79760;DHT22;69248;42.138;24.742;2023-04-25T10:39:41;23.00;44.50
79760;DHT22;69248;42.138;24.742;2023-04-25T10:42:09;23.00;43.20
79760;DHT22;69248;42.138;24.742;2023-04-25T10:44:39;22.90;42.50
79760;DHT22;69248;42.138;24.742;2023-04-25T10:47:07;23.00;43.60
79760;DHT22;69248;42.138;24.742;2023-04-25T10:49:43;23.10;43.80
79760;DHT22;69248;42.138;24.742;2023-04-25T10:54:54;23.20;42.00
79760;DHT22;69248;42.138;24.742;2023-04-25T11:00:19;23.40;41.60
79760;DHT22;69248;42.138;24.742;2023-04-25T11:02:59;23.30;40.30
79760;DHT22;69248;42.138;24.742;2023-04-25T11:05:31;23.50;40.10
79760;DHT22;69248;42.138;24.742;2023-04-25T11:08:00;23.70;39.60
79760;DHT22;69248;42.138;24.742;2023-04-25T11:10:32;23.80;38.70
79760;DHT22;69248;42.138;24.742;2023-04-25T11:13:01;23.90;37.90
79760;DHT22;69248;42.138;24.742;2023-04-25T11:15:29;24.10;37.90
79760;DHT22;69248;42.138;24.742;2023-04-25T11:17:56;24.40;37.40
79760;DHT22;69248;42.138;24.742;2023-04-25T11:20:26;24.50;38.00
79760;DHT22;69248;42.138;24.742;2023-04-25T11:23:01;24.70;37.10
79760;DHT22;69248;42.138;24.742;2023-04-25T11:25:26;24.70;37.20
79760;DHT22;69248;42.138;24.742;2023-04-25T11:27:55;24.80;37.70
79760;DHT22;69248;42.138;24.742;2023-04-25T11:30:26;25.00;39.30
79760;DHT22;69248;42.138;24.742;2023-04-25T11:32:55;25.30;39.30
79760;DHT22;69248;42.138;24.742;2023-04-25T11:35:22;25.50;39.40
79760;DHT22;69248;42.138;24.742;2023-04-25T11:37:52;25.70;39.00
79760;DHT22;69248;42.138;24.742;2023-04-25T11:40:20;25.90;39.40
79760;DHT22;69248;42.138;24.742;2023-04-25T11:42:48;26.20;39.00
79760;DHT22;69248;42.138;24.742;2023-04-25T11:45:15;26.30;38.00
79760;DHT22;69248;42.138;24.742;2023-04-25T11:47:45;26.30;37.90
79760;DHT22;69248;42.138;24.742;2023-04-25T11:50:13;26.40;38.60
79760;DHT22;69248;42.138;24.742;2023-04-25T11:52:45;26.70;37.70
79760;DHT22;69248;42.138;24.742;2023-04-25T11:55:14;26.90;37.80
79760;DHT22;69248;42.138;24.742;2023-04-25T11:57:44;27.40;36.10
79760;DHT22;69248;42.138;24.742;2023-04-25T12:00:13;27.80;35.00
79760;DHT22;69248;42.138;24.742;2023-04-25T12:02:44;27.90;34.50
79760;DHT22;69248;42.138;24.742;2023-04-25T12:05:14;28.20;34.50
79760;DHT22;69248;42.138;24.742;2023-04-25T12:07:47;28.50;33.40
79760;DHT22;69248;42.138;24.742;2023-04-25T12:10:18;28.40;33.70
79760;DHT22;69248;42.138;24.742;2023-04-25T12:12:47;28.30;33.50
79760;DHT22;69248;42.138;24.742;2023-04-25T12:15:23;27.90;33.70
79760;DHT22;69248;42.138;24.742;2023-04-25T12:17:49;27.70;34.50
79760;DHT22;69248;42.138;24.742;2023-04-25T12:20:19;27.80;34.20
79760;DHT22;69248;42.138;24.742;2023-04-25T12:22:48;28.00;34.30
79760;DHT22;69248;42.138;24.742;2023-04-25T12:25:35;28.10;33.70
79760;DHT22;69248;42.138;24.742;2023-04-25T12:28:17;28.10;33.70
79760;DHT22;69248;42.138;24.742;2023-04-25T12:30:58;28.70;33.10
79760;DHT22;69248;42.138;24.742;2023-04-25T12:33:28;29.30;32.60
79760;DHT22;69248;42.138;24.742;2023-04-25T12:35:56;30.10;31.30
79760;DHT22;69248;42.138;24.742;2023-04-25T12:38:25;30.70;30.40
79760;DHT22;69248;42.138;24.742;2023-04-25T12:40:53;31.20;29.20
79760;DHT22;69248;42.138;24.742;2023-04-25T12:43:22;31.50;28.60
79760;DHT22;69248;42.138;24.742;2023-04-25T12:45:50;31.90;28.10
79760;DHT22;69248;42.138;24.742;2023-04-25T12:48:18;32.60;26.90
79760;DHT22;69248;42.138;24.742;2023-04-25T12:50:47;33.30;27.30
79760;DHT22;69248;42.138;24.742;2023-04-25T12:53:22;34.10;25.90
79760;DHT22;69248;42.138;24.742;2023-04-25T12:55:50;34.70;24.80
79760;DHT22;69248;42.138;24.742;2023-04-25T12:58:19;34.90;24.20
79760;DHT22;69248;42.138;24.742;2023-04-25T13:00:47;34.70;24.40
79760;DHT22;69248;42.138;24.742;2023-04-25T13:03:15;34.40;24.50
79760;DHT22;69248;42.138;24.742;2023-04-25T13:05:43;34.60;24.60
79760;DHT22;69248;42.138;24.742;2023-04-25T13:08:10;34.50;24.20
79760;DHT22;69248;42.138;24.742;2023-04-25T13:10:38;33.60;25.20
79760;DHT22;69248;42.138;24.742;2023-04-25T13:13:05;32.70;26.10
79760;DHT22;69248;42.138;24.742;2023-04-25T13:15:33;31.80;26.60
79760;DHT22;69248;42.138;24.742;2023-04-25T13:18:00;30.70;27.40
79760;DHT22;69248;42.138;24.742;2023-04-25T13:20:28;28.90;27.60
79760;DHT22;69248;42.138;24.742;2023-04-25T13:22:55;27.50;29.70
79760;DHT22;69248;42.138;24.742;2023-04-25T13:25:23;26.80;31.10
79760;DHT22;69248;42.138;24.742;2023-04-25T13:27:51;26.00;32.00
79760;DHT22;69248;42.138;24.742;2023-04-25T13:30:18;24.80;34.20
79760;DHT22;69248;42.138;24.742;2023-04-25T13:32:48;24.00;35.20
79760;DHT22;69248;42.138;24.742;2023-04-25T13:35:17;23.40;36.00
79760;DHT22;69248;42.138;24.742;2023-04-25T13:37:44;22.90;35.00
79760;DHT22;69248;42.138;24.742;2023-04-25T13:40:12;22.40;35.00
79760;DHT22;69248;42.138;24.742;2023-04-25T13:42:40;22.10;35.60
79760;DHT22;69248;42.138;24.742;2023-04-25T13:45:08;21.80;35.70
79760;DHT22;69248;42.138;24.742;2023-04-25T13:47:36;21.60;36.50
79760;DHT22;69248;42.138;24.742;2023-04-25T13:50:05;21.60;36.10
79760;DHT22;69248;42.138;24.742;2023-04-25T13:52:33;21.70;35.60
79760;DHT22;69248;42.138;24.742;2023-04-25T13:55:01;21.80;34.80
79760;DHT22;69248;42.138;24.742;2023-04-25T13:57:34;22.00;35.30
79760;DHT22;69248;42.138;24.742;2023-04-25T14:00:02;22.40;34.90
79760;DHT22;69248;42.138;24.742;2023-04-25T14:02:35;22.80;35.30
79760;DHT22;69248;42.138;24.742;2023-04-25T14:05:03;23.70;34.40
79760;DHT22;69248;42.138;24.742;2023-04-25T14:07:32;26.10;30.60
79760;DHT22;69248;42.138;24.742;2023-04-25T14:10:01;27.40;28.70
79760;DHT22;69248;42.138;24.742;2023-04-25T14:12:29;28.20;27.50
79760;DHT22;69248;42.138;24.742;2023-04-25T14:14:56;30.50;25.40
79760;DHT22;69248;42.138;24.742;2023-04-25T14:17:24;31.80;23.60
79760;DHT22;69248;42.138;24.742;2023-04-25T14:19:52;31.20;23.50
79760;DHT22;69248;42.138;24.742;2023-04-25T14:22:19;30.20;24.90
79760;DHT22;69248;42.138;24.742;2023-04-25T14:24:47;31.40;23.50
79760;DHT22;69248;42.138;24.742;2023-04-25T14:27:15;33.80;22.30
79760;DHT22;69248;42.138;24.742;2023-04-25T14:29:42;36.10;20.60
79760;DHT22;69248;42.138;24.742;2023-04-25T14:32:10;37.30;19.20
79760;DHT22;69248;42.138;24.742;2023-04-25T14:34:38;37.10;18.90
79760;DHT22;69248;42.138;24.742;2023-04-25T14:37:06;37.50;18.80
79760;DHT22;69248;42.138;24.742;2023-04-25T14:39:34;37.90;18.90
79760;DHT22;69248;42.138;24.742;2023-04-25T14:42:03;38.80;17.70
79760;DHT22;69248;42.138;24.742;2023-04-25T14:44:30;39.60;17.40
79760;DHT22;69248;42.138;24.742;2023-04-25T14:46:58;39.70;16.80
79760;DHT22;69248;42.138;24.742;2023-04-25T14:49:26;38.10;17.50
79760;DHT22;69248;42.138;24.742;2023-04-25T14:51:54;37.00;18.40
79760;DHT22;69248;42.138;24.742;2023-04-25T14:54:23;35.50;19.50
79760;DHT22;69248;42.138;24.742;2023-04-25T14:56:50;34.90;20.00
79760;DHT22;69248;42.138;24.742;2023-04-25T14:59:18;33.10;21.60
79760;DHT22;69248;42.138;24.742;2023-04-25T15:01:46;31.10;22.90
79760;DHT22;69248;42.138;24.742;2023-04-25T15:04:14;29.10;24.40
79760;DHT22;69248;42.138;24.742;2023-04-25T15:06:43;27.90;26.40
79760;DHT22;69248;42.138;24.742;2023-04-25T15:09:11;26.90;27.40
79760;DHT22;69248;42.138;24.742;2023-04-25T15:11:38;26.00;28.90
79760;DHT22;69248;42.138;24.742;2023-04-25T15:14:06;25.10;30.30
79760;DHT22;69248;42.138;24.742;2023-04-25T15:16:33;24.50;32.00
79760;DHT22;69248;42.138;24.742;2023-04-25T15:19:01;24.70;31.90
79760;DHT22;69248;42.138;24.742;2023-04-25T15:21:31;24.60;31.50
79760;DHT22;69248;42.138;24.742;2023-04-25T15:23:59;24.20;32.30
79760;DHT22;69248;42.138;24.742;2023-04-25T15:26:27;23.80;32.60
79760;DHT22;69248;42.138;24.742;2023-04-25T15:28:55;25.20;30.70
79760;DHT22;69248;42.138;24.742;2023-04-25T15:31:22;27.20;27.80